Time;durP1;ratioP1;P1;durP2;ratioP2;P2;SDS_P1;SDS_P2;PMS_P1;PMS_P2;Temp;Humidity;BMP_temperature;BMP_pressure;BME280_temperature;BME280_humidity;BME280_pressure;Samples;Min_cycle;Max_cycle;Signal;HPM_P1;HPM_P2
2022/03/04 00:00:56;;;;;;;25.48;14.30;;;;;;;;;;5004373;28;20095;-84
2022/03/04 00:03:22;;;;;;;25.60;14.18;;;;;;;;;;4999592;28;20026;-82
2022/03/04 00:05:48;;;;;;;27.20;13.45;;;;;;;;;;5006648;28;20030;-81
2022/03/04 00:08:14;;;;;;;40.70;18.17;;;;;;;;;;5008363;28;20034;-79
2022/03/04 00:10:40;;;;;;;27.75;13.82;;;;;;;;;;5004852;28;20030;-80
2022/03/04 00:13:07;;;;;;;27.75;13.50;;;;;;;;;;5025953;28;20260;-80
2022/03/04 00:15:33;;;;;;;27.25;13.13;;;;;;;;;;5002032;28;20058;-82
2022/03/04 00:17:59;;;;;;;26.58;13.85;;;;;;;;;;5019723;28;20030;-81
2022/03/04 00:20:25;;;;;;;25.45;13.25;;;;;;;;;;5008760;28;20027;-84
2022/03/04 00:22:54;;;;;;;29.15;13.65;;;3.40;99.90;;;;;;5002784;28;20031;-80
2022/03/04 00:25:21;;;;;;;23.60;13.48;;;;;;;;;;4985800;28;20039;-84
2022/03/04 00:27:47;;;;;;;22.95;12.52;;;;;;;;;;5000591;28;20049;-81
2022/03/04 00:30:13;;;;;;;25.17;13.77;;;;;;;;;;5006811;28;20050;-81
2022/03/04 00:32:39;;;;;;;28.17;13.43;;;;;;;;;;5002847;28;20034;-83
2022/03/04 00:35:06;;;;;;;22.67;12.90;;;3.40;99.90;;;;;;4999489;28;20037;-82
2022/03/04 00:37:33;;;;;;;24.50;11.98;;;;;;;;;;5005174;28;20035;-82
2022/03/04 00:39:59;;;;;;;24.33;11.40;;;;;;;;;;5018785;28;20041;-87
2022/03/04 00:42:27;;;;;;;23.60;11.95;;;3.50;98.70;;;;;;5006087;28;20042;-86
2022/03/04 00:44:53;;;;;;;28.10;12.63;;;;;;;;;;5010983;28;20099;-88
2022/03/04 00:47:19;;;;;;;23.33;12.95;;;3.50;99.00;;;;;;5009937;28;20101;-83
2022/03/04 00:49:45;;;;;;;24.00;12.55;;;6.50;99.90;;;;;;5007489;28;20041;-87
2022/03/04 00:52:10;;;;;;;25.67;12.40;;;6.10;99.50;;;;;;5007467;28;20713;-83
2022/03/04 00:54:36;;;;;;;21.38;11.50;;;3.50;99.00;;;;;;5017473;28;20042;-84
2022/03/04 00:57:02;;;;;;;24.05;11.90;;;5.20;99.70;;;;;;5012697;28;20091;-89
2022/03/04 00:59:28;;;;;;;24.90;12.55;;;;;;;;;;5001437;28;20023;-83
2022/03/04 01:01:58;;;;;;;21.35;12.27;;;3.30;98.80;;;;;;5009190;28;20098;-84
2022/03/04 01:04:24;;;;;;;24.70;12.18;;;;;;;;;;4983232;28;20039;-82
2022/03/04 01:06:50;;;;;;;23.17;11.45;;;;;;;;;;4998471;28;20033;-82
2022/03/04 01:09:16;;;;;;;21.42;11.55;;;;;;;;;;5004980;28;20395;-81
2022/03/04 01:11:42;;;;;;;23.42;12.15;;;;;;;;;;5003778;28;20105;-82
2022/03/04 01:14:09;;;;;;;21.35;11.20;;;3.00;99.60;;;;;;5008392;28;20333;-87
2022/03/04 01:16:35;;;;;;;23.65;12.10;;;;;;;;;;5009874;28;20041;-80
2022/03/04 01:19:02;;;;;;;23.65;11.57;;;;;;;;;;5007011;28;20030;-80
2022/03/04 01:21:28;;;;;;;24.77;12.63;;;;;;;;;;5007351;28;20030;-80
2022/03/04 01:23:54;;;;;;;20.45;11.32;;;2.80;99.90;;;;;;4991681;28;20043;-82
2022/03/04 01:26:20;;;;;;;23.27;12.10;;;;;;;;;;5003200;28;20027;-81
2022/03/04 01:28:46;;;;;;;23.48;11.75;;;;;;;;;;4995438;28;20027;-82
2022/03/04 01:31:14;;;;;;;26.50;12.55;;;;;;;;;;4994643;28;20074;-82
2022/03/04 01:33:42;;;;;;;23.38;12.60;;;2.70;99.90;;;;;;5006455;28;20050;-82
2022/03/04 01:36:08;;;;;;;21.50;11.93;;;;;;;;;;5001251;28;20022;-80
2022/03/04 01:38:34;;;;;;;23.90;11.85;;;;;;;;;;5002980;28;20026;-80
2022/03/04 01:41:01;;;;;;;21.92;12.02;;;;;;;;;;5003848;28;20117;-81
2022/03/04 01:43:27;;;;;;;23.52;11.63;;;;;;;;;;5010758;28;20075;-82
2022/03/04 01:45:53;;;;;;;22.25;11.68;;;;;;;;;;5009633;28;20040;-83
2022/03/04 01:48:22;;;;;;;24.02;12.30;;;2.60;99.90;;;;;;5005634;28;20042;-82
2022/03/04 01:50:49;;;;;;;24.13;11.88;;;2.60;99.90;;;;;;4994553;28;20031;-84
2022/03/04 01:53:16;;;;;;;23.05;12.13;;;2.60;99.90;;;;;;4989472;28;20045;-85
2022/03/04 01:55:43;;;;;;;24.02;11.70;;;;;;;;;;5002019;28;20046;-82
2022/03/04 01:58:09;;;;;;;19.70;10.77;;;2.60;99.90;;;;;;5002326;28;20035;-81
2022/03/04 02:00:35;;;;;;;21.38;10.50;;;2.70;99.90;;;;;;5008436;28;20511;-81
2022/03/04 02:03:01;;;;;;;21.38;10.77;;;4.70;99.90;;;;;;5009228;28;20022;-83
2022/03/04 02:05:27;;;;;;;20.80;11.25;;;2.60;99.90;;;;;;5007942;28;20034;-85
2022/03/04 02:07:54;;;;;;;21.98;11.10;;;;;;;;;;5006671;28;20054;-82
2022/03/04 02:10:20;;;;;;;22.48;11.38;;;;;;;;;;5006325;28;20042;-81
2022/03/04 02:12:46;;;;;;;19.65;10.50;;;2.70;99.90;;;;;;5017720;28;20019;-82
2022/03/04 02:15:12;;;;;;;20.80;11.02;;;2.70;99.90;;;;;;5006633;28;20168;-81
2022/03/04 02:17:38;;;;;;;24.35;11.60;;;2.70;99.90;;;;;;4996082;28;20506;-81
2022/03/04 02:20:13;;;;;;;20.08;11.00;;;2.60;99.90;;;;;;4989244;28;20030;-81
2022/03/04 02:22:40;;;;;;;19.77;10.68;;;;;;;;;;4998796;28;20044;-84
2022/03/04 02:25:06;;;;;;;19.55;10.60;;;;;;;;;;5006575;28;20026;-81
2022/03/04 02:27:55;;;;;;;23.15;11.55;;;2.70;99.90;;;;;;4994061;28;20019;-81
2022/03/04 02:30:21;;;;;;;23.65;11.18;;;;;;;;;;5001192;28;20081;-80
2022/03/04 02:32:48;;;;;;;19.63;10.70;;;;;;;;;;5007507;28;20026;-80
2022/03/04 02:35:14;;;;;;;25.55;11.27;;;;;;;;;;5003435;28;20033;-81
2022/03/04 02:38:21;;;;;;;17.23;9.95;;;2.50;99.90;;;;;;5003344;28;20502;-80
2022/03/04 02:40:47;;;;;;;20.05;10.60;;;;;;;;;;5017545;28;20125;-80
2022/03/04 02:43:19;;;;;;;19.48;10.25;;;2.50;99.90;;;;;;5001190;28;20046;-80
2022/03/04 02:45:45;;;;;;;19.20;9.95;;;;;;;;;;5003912;28;20117;-80
2022/03/04 02:48:11;;;;;;;20.63;10.25;;;2.40;99.90;;;;;;5016196;28;20019;-81
2022/03/04 02:50:37;;;;;;;19.58;10.02;;;;;;;;;;5002867;28;20075;-81
2022/03/04 02:53:05;;;;;;;22.90;9.73;;;;;;;;;;4998249;28;20029;-81
2022/03/04 02:55:31;;;;;;;18.88;9.50;;;;;;;;;;5006083;28;20041;-80
2022/03/04 02:57:58;;;;;;;18.05;9.70;;;;;;;;;;5000255;28;20030;-83
2022/03/04 03:00:24;;;;;;;20.45;10.13;;;;;;;;;;5015429;28;20038;-81
2022/03/04 03:02:50;;;;;;;19.23;9.80;;;2.30;99.90;;;;;;5014675;28;20054;-80
2022/03/04 03:05:20;;;;;;;17.95;9.85;;;2.30;99.90;;;;;;5005130;28;20026;-80
2022/03/04 03:07:49;;;;;;;20.83;10.40;;;;;;;;;;5004682;28;20077;-80
2022/03/04 03:10:15;;;;;;;16.92;9.35;;;;;;;;;;5002093;28;20033;-82
2022/03/04 03:13:04;;;;;;;20.88;11.85;;;2.40;99.90;;;;;;4998425;28;20030;-81
2022/03/04 03:15:36;;;;;;;22.17;12.18;;;2.30;99.90;;;;;;5005519;28;20036;-81
2022/03/04 03:18:56;;;;;;;19.08;11.18;;;2.40;99.90;;;;;;5000116;28;20030;-82
2022/03/04 03:21:45;;;;;;;19.95;11.20;;;2.60;99.90;;;;;;4995082;28;20042;-81
2022/03/04 03:24:11;;;;;;;20.95;11.02;;;;;;;;;;5005743;28;20034;-86
2022/03/04 03:26:37;;;;;;;20.42;10.85;;;;;;;;;;5004917;28;20034;-81
2022/03/04 03:29:03;;;;;;;21.20;10.57;;;;;;;;;;4999179;28;20027;-81
2022/03/04 03:31:29;;;;;;;20.55;12.07;;;;;;;;;;5017026;28;20412;-87
2022/03/04 03:33:57;;;;;;;23.40;11.43;;;;;;;;;;5004637;28;20038;-81
2022/03/04 03:36:45;;;;;;;20.33;11.05;;;2.20;99.90;;;;;;5001104;28;20030;-82
2022/03/04 03:39:57;;;;;;;22.15;11.48;;;3.40;99.90;;;;;;4997082;28;20086;-81
2022/03/04 03:42:24;;;;;;;22.45;11.40;;;2.20;99.90;;;;;;5002611;28;20033;-82
2022/03/04 03:44:52;;;;;;;20.10;11.00;;;2.00;99.90;;;;;;4996272;28;20030;-82
2022/03/04 03:47:24;;;;;;;20.63;10.57;;;2.20;99.90;;;;;;5003348;28;20023;-80
2022/03/04 03:49:50;;;;;;;21.33;10.65;;;;;;;;;;5000568;28;20030;-80
2022/03/04 03:52:16;;;;;;;19.02;10.02;;;2.20;99.90;;;;;;4996533;28;20030;-80
2022/03/04 03:54:43;;;;;;;20.08;10.77;;;2.30;99.90;;;;;;5019215;28;21091;-81
2022/03/04 03:57:10;;;;;;;23.75;10.75;;;4.10;99.90;;;;;;4984583;28;20026;-82
2022/03/04 03:59:55;;;;;;;23.63;11.15;;;2.20;99.90;;;;;;4992048;28;20026;-80
2022/03/04 04:02:21;;;;;;;19.88;10.57;;;2.20;99.90;;;;;;5003136;28;20034;-81
2022/03/04 04:04:47;;;;;;;20.05;10.85;;;;;;;;;;4994320;28;20042;-81
2022/03/04 04:07:14;;;;;;;19.77;10.90;;;;;;;;;;4994458;28;20098;-81
2022/03/04 04:09:59;;;;;;;19.70;10.82;;;4.80;99.90;;;;;;5014191;28;20027;-81
2022/03/04 04:12:28;;;;;;;21.85;10.60;;;2.20;99.90;;;;;;5003541;28;20054;-79
2022/03/04 04:14:55;;;;;;;21.77;10.90;;;;;;;;;;5001216;28;20038;-81
2022/03/04 04:17:20;;;;;;;27.58;10.93;;;2.20;99.90;;;;;;5004750;28;20468;-82
2022/03/04 04:19:46;;;;;;;21.98;10.13;;;;;;;;;;4992566;28;20062;-80
2022/03/04 04:22:12;;;;;;;19.85;10.68;;;;;;;;;;5006989;28;20026;-81
2022/03/04 04:24:38;;;;;;;20.05;11.23;;;;;;;;;;4998334;28;20034;-80
2022/03/04 04:27:17;;;;;;;23.27;10.52;;;2.20;99.90;;;;;;4990340;28;20035;-80
2022/03/04 04:29:45;;;;;;;19.05;10.35;;;2.20;99.90;;;;;;5005921;28;20030;-80
2022/03/04 04:32:12;;;;;;;21.25;10.70;;;5.40;99.90;;;;;;5003704;28;20042;-80
2022/03/04 04:34:38;;;;;;;22.70;10.40;;;;;;;;;;5004852;28;20034;-81
2022/03/04 04:37:05;;;;;;;18.27;9.65;;;;;;;;;;5002930;28;20033;-82
2022/03/04 04:39:50;;;;;;;21.30;10.35;;;;;;;;;;5002576;28;20378;-81
2022/03/04 04:42:17;;;;;;;23.42;10.13;;;2.20;99.90;;;;;;4996335;28;20102;-80
2022/03/04 04:44:43;;;;;;;18.25;9.80;;;2.20;99.90;;;;;;5007293;28;20030;-80
2022/03/04 04:47:09;;;;;;;16.58;9.77;;;2.20;99.90;;;;;;5001583;28;20081;-82
2022/03/04 04:49:39;;;;;;;21.52;10.52;;;;;;;;;;5004185;28;20031;-80
2022/03/04 04:53:31;;;;;;;19.88;9.73;;;2.20;99.90;;;;;;5008074;28;20031;-82
2022/03/04 04:56:31;;;;;;;21.95;10.63;;;2.20;99.90;;;;;;5001087;28;20034;-82
2022/03/04 04:58:57;;;;;;;21.40;10.65;;;;;;;;;;5005886;28;20113;-80
2022/03/04 05:01:23;;;;;;;20.27;10.30;;;;;;;;;;5010265;28;20037;-81
2022/03/04 05:04:01;;;;;;;20.92;9.95;;;2.20;99.90;;;;;;5025476;28;20515;-81
2022/03/04 05:06:38;;;;;;;22.55;10.45;;;2.10;99.90;;;;;;5005560;28;20377;-80
2022/03/04 05:09:04;;;;;;;22.42;10.60;;;;;;;;;;5006312;28;20026;-80
2022/03/04 05:11:36;;;;;;;20.35;10.35;;;2.00;99.90;;;;;;5007178;28;20046;-81
2022/03/04 05:14:04;;;;;;;20.08;10.02;;;;;;;;;;5023669;28;20031;-82
2022/03/04 05:16:30;;;;;;;21.33;11.32;;;;;;;;;;5017809;28;20027;-81
2022/03/04 05:18:59;;;;;;;21.30;11.55;;;2.00;99.90;;;;;;5025649;28;20038;-81
2022/03/04 05:21:28;;;;;;;19.50;10.45;;;2.10;99.90;;;;;;4996221;28;20015;-80
2022/03/04 05:24:16;;;;;;;21.17;11.50;;;1.90;99.90;;;;;;4985547;28;20058;-81
2022/03/04 05:26:51;;;;;;;21.15;10.68;;;1.90;99.90;;;;;;5010856;28;20031;-80
2022/03/04 05:29:17;;;;;;;19.85;10.60;;;;;;;;;;5005195;28;20041;-80
2022/03/04 05:32:09;;;;;;;20.27;10.65;;;1.90;99.90;;;;;;5002629;28;20121;-80
2022/03/04 05:34:37;;;;;;;20.98;11.25;;;1.90;99.90;;;;;;4982846;28;20062;-80
2022/03/04 05:37:14;;;;;;;21.50;11.60;;;;;;;;;;4996329;28;20030;-80
2022/03/04 05:39:46;;;;;;;23.75;11.52;;;1.90;99.90;;;;;;5007937;28;20030;-81
2022/03/04 05:42:12;;;;;;;19.25;10.40;;;;;;;;;;5000974;28;20050;-79
2022/03/04 05:44:41;;;;;;;22.40;9.65;;;;;;;;;;4999812;28;20033;-84
2022/03/04 05:47:07;;;;;;;21.08;11.48;;;;;;;;;;5013434;28;20030;-80
2022/03/04 05:49:33;;;;;;;25.60;12.27;;;;;;;;;;5026589;28;20053;-79
2022/03/04 05:52:06;;;;;;;23.33;11.85;;;1.80;99.90;;;;;;5006412;28;20026;-81
2022/03/04 05:54:47;;;;;;;23.45;12.05;;;1.80;99.90;;;;;;5002204;28;20030;-80
2022/03/04 05:57:13;;;;;;;23.90;12.55;;;;;;;;;;5010829;28;20029;-80
2022/03/04 05:59:40;;;;;;;23.45;12.13;;;1.70;99.90;;;;;;5004439;28;20026;-79
2022/03/04 06:02:06;;;;;;;23.65;11.60;;;;;;;;;;4993775;28;20092;-79
2022/03/04 06:04:32;;;;;;;24.83;12.63;;;;;;;;;;4980251;28;20105;-81
2022/03/04 06:06:58;;;;;;;27.15;12.02;;;;;;;;;;5027734;28;20022;-84
2022/03/04 06:09:28;;;;;;;25.10;12.10;;;;;;;;;;5019863;28;20034;-81
2022/03/04 06:12:08;;;;;;;24.50;13.07;;;;;;;;;;5005506;28;20030;-78
2022/03/04 06:14:35;;;;;;;22.63;11.30;;;;;;;;;;5024967;28;20041;-79
2022/03/04 06:17:00;;;;;;;23.25;11.52;;;1.90;99.90;;;;;;4998234;28;20050;-79
2022/03/04 06:19:26;;;;;;;21.17;11.40;;;;;;;;;;5004099;28;20093;-82
2022/03/04 06:21:52;;;;;;;22.20;11.70;;;;;;;;;;4989142;28;20039;-80
2022/03/04 06:24:19;;;;;;;24.60;11.10;;;;;;;;;;4997832;28;20503;-81
2022/03/04 06:27:21;;;;;;;25.13;12.75;;;1.90;99.90;;;;;;5003520;28;20031;-81
2022/03/04 06:29:48;;;;;;;22.83;12.10;;;;;;;;;;4998391;28;20034;-80
2022/03/04 06:32:15;;;;;;;24.77;13.75;;;;;;;;;;4992868;28;20111;-79
2022/03/04 06:34:54;;;;;;;25.65;12.40;;;2.00;99.90;;;;;;5042817;22;20080;-79
2022/03/04 06:37:20;;;;;;;25.70;12.68;;;3.00;99.90;;;;;;5003693;28;20026;-80
2022/03/04 06:39:46;;;;;;;24.73;11.70;;;1.80;99.90;;;;;;4994711;28;20041;-79
2022/03/04 06:42:12;;;;;;;25.77;12.60;;;3.10;99.90;;;;;;5003989;28;20053;-77
2022/03/04 06:44:38;;;;;;;27.08;11.48;;;1.80;99.90;;;;;;5021971;28;20040;-81
2022/03/04 06:47:04;;;;;;;24.63;12.15;;;1.90;99.90;;;;;;5017117;28;20041;-81
2022/03/04 06:49:30;;;;;;;27.33;13.05;;;1.90;99.90;;;;;;4995710;28;21066;-81
2022/03/04 06:51:56;;;;;;;27.92;12.60;;;;;;;;;;4993560;28;20169;-80
2022/03/04 06:54:22;;;;;;;24.60;12.45;;;2.00;99.90;;;;;;4995800;28;20161;-79
2022/03/04 06:56:48;;;;;;;23.17;12.00;;;4.30;99.90;;;;;;5009449;28;20070;-80
2022/03/04 06:59:14;;;;;;;25.50;13.05;;;2.00;99.90;;;;;;4996075;28;20041;-80
2022/03/04 07:01:40;;;;;;;26.23;12.60;;;2.30;99.90;;;;;;5007294;28;20015;-84
2022/03/04 07:04:07;;;;;;;27.70;13.10;;;2.20;99.90;;;;;;4997270;28;20057;-79
2022/03/04 07:06:33;;;;;;;26.33;12.98;;;2.20;99.90;;;;;;4998777;28;20023;-79
2022/03/04 07:08:59;;;;;;;28.77;14.25;;;;;;;;;;4999913;28;20125;-81
2022/03/04 07:11:27;;;;;;;26.00;13.20;;;2.40;99.90;;;;;;4995945;28;20031;-80
2022/03/04 07:13:53;;;;;;;26.63;12.40;;;2.30;99.90;;;;;;4994111;28;20085;-80
2022/03/04 07:16:19;;;;;;;28.55;13.30;;;2.50;99.90;;;;;;5016575;28;20056;-80
2022/03/04 07:18:45;;;;;;;22.52;13.05;;;3.20;99.90;;;;;;4998595;28;20402;-80
2022/03/04 07:21:13;;;;;;;29.40;13.90;;;6.10;99.90;;;;;;4991412;28;20033;-78
2022/03/04 07:23:39;;;;;;;25.02;13.80;;;2.70;99.90;;;;;;4995156;28;20033;-80
2022/03/04 07:26:08;;;;;;;26.92;14.05;;;2.70;99.90;;;;;;4991817;28;20402;-80
2022/03/04 07:28:35;;;;;;;24.23;13.63;;;2.90;99.90;;;;;;4991732;28;20034;-81
2022/03/04 07:31:01;;;;;;;29.23;14.43;;;2.90;99.90;;;;;;5011714;28;20026;-80
2022/03/04 07:33:27;;;;;;;24.13;13.38;;;2.80;99.90;;;;;;5008589;28;20033;-78
2022/03/04 07:35:53;;;;;;;25.88;14.20;;;3.00;99.90;;;;;;5008747;28;20089;-82
2022/03/04 07:38:19;;;;;;;28.17;14.27;;;3.00;99.90;;;;;;4994823;28;20053;-80
2022/03/04 07:40:45;;;;;;;29.70;14.02;;;3.10;99.90;;;;;;4997715;28;20162;-82
2022/03/04 07:43:40;;;;;;;27.48;14.00;;;3.20;99.90;;;;;;5021242;28;20018;-82
2022/03/04 07:46:36;;;;;;;27.67;14.15;;;3.30;99.90;;;;;;5013372;28;20024;-81
2022/03/04 07:49:27;;;;;;;29.30;14.25;;;3.30;99.90;;;;;;4993631;28;20041;-82
2022/03/04 07:52:02;;;;;;;23.60;13.30;;;3.50;99.90;;;;;;5025218;28;20038;-81
2022/03/04 07:55:26;;;;;;;25.23;14.35;;;3.50;99.90;;;;;;5022209;28;20026;-82
2022/03/04 07:58:53;;;;;;;25.25;13.98;;;3.70;99.90;;;;;;5021117;28;20027;-81
2022/03/04 08:01:41;;;;;;;26.48;13.45;;;3.70;99.50;;;;;;5012376;28;20041;-81
2022/03/04 08:04:12;;;;;;;27.20;14.23;;;3.80;98.90;;;;;;5010154;28;20006;-79
2022/03/04 08:07:14;;;;;;;27.75;14.57;;;4.00;97.90;;;;;;5025721;28;20518;-83
2022/03/04 08:10:21;;;;;;;26.63;13.85;;;6.70;98.50;;;;;;4986856;28;20042;-80
2022/03/04 08:13:41;;;;;;;27.50;14.52;;;4.10;98.00;;;;;;5022748;28;20034;-82
2022/03/04 08:16:52;;;;;;;26.58;13.60;;;4.20;97.10;;;;;;5028110;28;20033;-81
2022/03/04 08:19:43;;;;;;;24.17;13.30;;;4.30;97.20;;;;;;5025001;28;20018;-80
2022/03/04 08:22:51;;;;;;;27.08;14.02;;;4.40;96.50;;;;;;5043810;28;20052;-83
2022/03/04 08:25:18;;;;;;;24.58;13.82;;;4.40;96.20;;;;;;5014085;28;20026;-82
2022/03/04 08:27:44;;;;;;;28.05;14.65;;;4.50;96.20;;;;;;5010865;28;20030;-81
2022/03/04 08:30:12;;;;;;;27.00;13.65;;;4.60;95.70;;;;;;4992348;28;20026;-81
2022/03/04 08:32:39;;;;;;;29.20;14.23;;;4.60;94.60;;;;;;4993211;28;20022;-82
2022/03/04 08:35:06;;;;;;;25.55;14.93;;;4.70;94.60;;;;;;4998171;28;20034;-79
2022/03/04 08:37:32;;;;;;;26.23;14.38;;;4.80;94.50;;;;;;4993632;28;20034;-81
2022/03/04 08:39:58;;;;;;;26.70;15.13;;;7.30;94.60;;;;;;4977430;28;20056;-80
2022/03/04 08:42:27;;;;;;;27.15;14.95;;;5.00;93.30;;;;;;4993207;28;20590;-79
2022/03/04 08:44:54;;;;;;;27.88;14.43;;;5.10;93.50;;;;;;4989087;28;20172;-79
2022/03/04 08:47:23;;;;;;;29.60;14.13;;;5.20;92.50;;;;;;4991972;28;20046;-82
2022/03/04 08:49:49;;;;;;;26.02;13.98;;;5.40;91.50;;;;;;4997110;28;20041;-81
2022/03/04 08:52:15;;;;;;;28.05;15.05;;;5.40;90.90;;;;;;5003515;28;20022;-81
2022/03/04 08:54:40;;;;;;;29.10;14.35;;;5.50;91.30;;;;;;4997732;28;20036;-82
2022/03/04 08:57:06;;;;;;;29.38;14.98;;;5.60;90.90;;;;;;4995357;28;20018;-83
2022/03/04 08:59:33;;;;;;;26.08;14.73;;;5.60;90.70;;;;;;5000714;28;20021;-82
2022/03/04 09:01:58;;;;;;;28.58;14.77;;;6.80;90.20;;;;;;4988373;28;20046;-81
2022/03/04 09:04:25;;;;;;;25.58;13.07;;;5.90;88.90;;;;;;4989342;28;20037;-85
2022/03/04 09:06:51;;;;;;;24.75;13.40;;;6.10;85.90;;;;;;4998609;28;20509;-84
2022/03/04 09:09:17;;;;;;;30.23;15.98;;;5.90;87.40;;;;;;5000731;28;20018;-80
2022/03/04 09:11:43;;;;;;;27.35;14.40;;;6.10;87.40;;;;;;5019957;28;20615;-82
2022/03/04 09:14:09;;;;;;;26.35;14.68;;;6.20;85.70;;;;;;5000100;28;20112;-85
2022/03/04 09:16:36;;;;;;;31.35;14.77;;;6.30;85.00;;;;;;4998327;28;20026;-83
2022/03/04 09:19:02;;;;;;;25.10;14.63;;;6.30;84.70;;;;;;4998022;28;20034;-85
2022/03/04 09:21:28;;;;;;;24.55;14.43;;;6.40;84.60;;;;;;5010158;28;20022;-83
2022/03/04 09:23:55;;;;;;;24.58;14.25;;;6.50;82.90;;;;;;4996575;28;20036;-82
2022/03/04 09:26:21;;;;;;;27.50;15.10;;;6.60;81.80;;;;;;4999982;28;20216;-81
2022/03/04 09:28:47;;;;;;;27.98;14.85;;;7.80;81.00;;;;;;4998405;28;20030;-81
2022/03/04 09:31:13;;;;;;;26.20;15.30;;;6.80;79.80;;;;;;4999091;28;20034;-81
2022/03/04 09:33:39;;;;;;;29.15;15.55;;;6.80;80.10;;;;;;4998521;28;20097;-81
2022/03/04 09:36:07;;;;;;;31.92;14.40;;;6.90;79.90;;;;;;5011747;28;20026;-83
2022/03/04 09:38:33;;;;;;;27.80;15.35;;;6.90;79.60;;;;;;4992734;28;20258;-81
2022/03/04 09:41:00;;;;;;;28.30;14.65;;;7.00;80.30;;;;;;4991635;28;20035;-81
2022/03/04 09:43:25;;;;;;;26.50;14.60;;;7.10;78.40;;;;;;4992832;28;20057;-81
2022/03/04 09:45:51;;;;;;;25.52;15.20;;;7.20;77.30;;;;;;4997388;28;20033;-80
2022/03/04 09:48:18;;;;;;;28.45;14.75;;;7.20;77.50;;;;;;4997297;28;20050;-81
2022/03/04 09:50:47;;;;;;;25.70;14.65;;;7.30;76.40;;;;;;5013746;28;20054;-81
2022/03/04 09:53:13;;;;;;;23.38;13.95;;;7.30;75.80;;;;;;5000560;28;20022;-83
2022/03/04 09:55:40;;;;;;;24.75;14.25;;;7.40;75.50;;;;;;4996513;28;20033;-84
2022/03/04 09:58:18;;;;;;;25.88;14.18;;;7.50;74.90;;;;;;4996715;28;20025;-82
2022/03/04 10:00:46;;;;;;;24.40;13.80;;;8.20;75.10;;;;;;5000475;28;20041;-83
2022/03/04 10:03:30;;;;;;;29.10;14.38;;;7.60;74.00;;;;;;5015192;28;20022;-81
2022/03/04 10:05:59;;;;;;;29.13;14.38;;;7.80;72.50;;;;;;4988281;28;20031;-84
2022/03/04 10:08:26;;;;;;;24.88;14.52;;;7.90;72.10;;;;;;4992986;28;20089;-83
2022/03/04 10:10:54;;;;;;;28.48;14.80;;;8.90;71.80;;;;;;4990889;28;20081;-82
2022/03/04 10:13:52;;;;;;;27.10;15.23;;;9.10;68.20;;;;;;4995904;28;20042;-85
2022/03/04 10:16:31;;;;;;;30.02;14.38;;;9.70;64.40;;;;;;4998280;28;20033;-81
2022/03/04 10:19:16;;;;;;;26.98;15.40;;;10.20;62.50;;;;;;4996424;28;20033;-81
2022/03/04 10:21:51;;;;;;;24.85;14.85;;;10.80;60.30;;;;;;4994922;28;20478;-86
2022/03/04 10:24:20;;;;;;;24.83;15.02;;;10.80;59.50;;;;;;5009242;28;20029;-84
2022/03/04 10:26:47;;;;;;;30.13;15.10;;;10.60;59.40;;;;;;4992551;28;20042;-82
2022/03/04 10:29:24;;;;;;;28.52;14.63;;;10.40;59.60;;;;;;4990633;28;20492;-82
2022/03/04 10:32:10;;;;;;;28.92;15.18;;;10.10;59.70;;;;;;4989108;28;20025;-81
2022/03/04 10:35:01;;;;;;;27.05;14.88;;;9.80;60.70;;;;;;4997475;28;20076;-86
2022/03/04 10:37:51;;;;;;;24.30;13.95;;;9.60;61.10;;;;;;4992343;28;20026;-84
2022/03/04 10:40:19;;;;;;;27.40;15.05;;;9.70;61.30;;;;;;4986389;28;20088;-81
2022/03/04 10:42:55;;;;;;;23.73;13.85;;;9.50;61.00;;;;;;4994031;28;20128;-84
2022/03/04 10:45:23;;;;;;;28.25;14.77;;;9.50;60.80;;;;;;4991468;28;20037;-83
2022/03/04 10:47:53;;;;;;;25.42;14.20;;;9.30;61.90;;;;;;4993510;28;20029;-85
2022/03/04 10:50:31;;;;;;;23.65;13.85;;;9.40;61.70;;;;;;4993349;28;20026;-85
2022/03/04 10:53:07;;;;;;;28.30;14.00;;;9.50;59.90;;;;;;4995852;28;20076;-84
2022/03/04 10:55:44;;;;;;;28.85;14.57;;;9.30;60.60;;;;;;4980923;28;20033;-83
2022/03/04 10:58:13;;;;;;;24.52;14.20;;;9.30;60.90;;;;;;4998622;28;20030;-84
2022/03/04 11:00:43;;;;;;;28.20;14.50;;;9.30;61.30;;;;;;4995258;28;20038;-81
2022/03/04 11:03:16;;;;;;;29.08;14.13;;;9.30;60.60;;;;;;5003288;28;20284;-86
2022/03/04 11:05:43;;;;;;;26.50;14.75;;;9.50;59.90;;;;;;5008345;28;20501;-84
2022/03/04 11:08:09;;;;;;;23.58;13.85;;;9.60;60.30;;;;;;4989231;28;20021;-84
2022/03/04 11:10:36;;;;;;;25.92;13.85;;;9.60;59.80;;;;;;5019127;28;20479;-85
2022/03/04 11:13:07;;;;;;;24.60;13.10;;;9.60;59.60;;;;;;5018242;28;20032;-85
2022/03/04 11:15:35;;;;;;;25.70;14.15;;;9.80;60.30;;;;;;4987440;28;20030;-85
2022/03/04 11:18:09;;;;;;;27.25;14.80;;;10.00;59.20;;;;;;4985251;28;20548;-85
2022/03/04 11:20:38;;;;;;;27.45;14.30;;;10.70;58.00;;;;;;5001033;28;20045;-86
2022/03/04 11:23:06;;;;;;;25.45;15.00;;;11.50;56.70;;;;;;5019520;28;20030;-84
2022/03/04 11:25:43;;;;;;;23.20;13.68;;;11.60;55.40;;;;;;4990231;28;20026;-84
2022/03/04 11:28:16;;;;;;;25.52;13.63;;;11.90;54.50;;;;;;4993141;28;20022;-83
2022/03/04 11:30:58;;;;;;;24.02;14.18;;;12.50;53.80;;;;;;5009723;28;20026;-87
2022/03/04 11:33:36;;;;;;;24.13;14.23;;;12.80;51.60;;;;;;4995737;28;20098;-88
2022/03/04 11:36:14;;;;;;;25.52;14.70;;;12.60;51.90;;;;;;4992678;28;20030;-87
2022/03/04 11:38:49;;;;;;;24.20;14.07;;;12.10;53.20;;;;;;5002956;28;20502;-86
2022/03/04 11:41:24;;;;;;;25.75;13.32;;;11.40;53.50;;;;;;5006908;28;20031;-83
2022/03/04 11:44:01;;;;;;;28.17;14.27;;;10.90;53.60;;;;;;4996771;28;20026;-84
2022/03/04 11:46:41;;;;;;;27.63;13.52;;;10.80;54.80;;;;;;5026353;28;20030;-81
2022/03/04 11:49:31;;;;;;;23.33;12.65;;;10.80;55.40;;;;;;4997239;28;20022;-84
2022/03/04 11:52:11;;;;;;;23.77;13.60;;;10.80;55.40;;;;;;4990626;28;20019;-83
2022/03/04 11:54:54;;;;;;;27.27;14.93;;;10.70;55.80;;;;;;4994521;28;20066;-86
2022/03/04 11:57:34;;;;;;;27.90;15.45;;;10.70;56.00;;;;;;5018773;28;20033;-85
2022/03/04 12:00:44;;;;;;;24.88;13.80;;;10.60;56.00;;;;;;5003407;28;20034;-83
2022/03/04 12:04:02;;;;;;;22.83;13.00;;;10.70;56.00;;;;;;4995650;28;20057;-85
2022/03/04 12:07:08;;;;;;;22.85;13.57;;;10.80;53.60;;;;;;4983600;28;20043;-88
2022/03/04 12:09:58;;;;;;;22.55;12.45;;;10.80;54.20;;;;;;4980771;28;20041;-85
2022/03/04 12:12:50;;;;;;;;;;;10.80;54.50;;;;;;5002008;28;20026;-84
2022/03/04 12:16:09;;;;;;;23.67;12.95;;;10.90;54.80;;;;;;5001618;28;19914;-88
2022/03/04 12:18:38;;;;;;;25.92;14.48;;;12.00;56.60;;;;;;5011381;28;20033;-84
2022/03/04 12:22:09;;;;;;;25.90;13.40;;;11.00;55.10;;;;;;4988545;28;20021;-89
2022/03/04 12:25:33;;;;;;;24.65;14.10;;;11.00;54.10;;;;;;5023937;28;20444;-88
2022/03/04 12:32:15;;;;;;;24.00;13.98;;;11.00;54.50;;;;;;4986452;28;20090;-90
2022/03/04 12:35:23;;;;;;;25.60;14.88;;;11.10;54.60;;;;;;5008051;28;20379;-90
2022/03/04 12:38:00;;;;;;;26.42;13.85;;;11.20;54.90;;;;;;5014127;28;20045;-85
2022/03/04 12:40:33;;;;;;;26.38;14.70;;;11.30;55.00;;;;;;4988051;28;20117;-88
2022/03/04 12:43:05;;;;;;;28.80;14.77;;;11.10;54.40;;;;;;5005514;28;20108;-85
2022/03/04 12:45:33;;;;;;;24.02;14.13;;;10.90;54.50;;;;;;5007066;28;20033;-84
2022/03/04 12:48:09;;;;;;;24.40;13.95;;;10.90;54.50;;;;;;4993777;28;20053;-84
2022/03/04 12:50:37;;;;;;;26.45;14.35;;;11.00;54.40;;;;;;5007213;28;20026;-83
2022/03/04 12:53:30;;;;;;;26.73;14.52;;;11.20;54.40;;;;;;5018723;28;20014;-84
2022/03/04 12:56:12;;;;;;;27.05;14.32;;;11.20;54.20;;;;;;5022023;28;20025;-84
2022/03/04 12:58:48;;;;;;;27.13;14.23;;;11.20;53.80;;;;;;5011510;28;20065;-83
2022/03/04 13:01:18;;;;;;;23.15;13.60;;;11.20;53.70;;;;;;4990354;28;20030;-87
2022/03/04 13:03:56;;;;;;;25.15;13.57;;;11.20;54.10;;;;;;5015174;28;20037;-85
2022/03/04 13:06:26;;;;;;;23.52;14.32;;;11.20;54.10;;;;;;4995276;28;20090;-86
2022/03/04 13:09:12;;;;;;;23.90;14.10;;;11.40;54.00;;;;;;5027222;28;20030;-85
2022/03/04 13:11:45;;;;;;;25.33;12.97;;;11.40;53.70;;;;;;4994671;28;20022;-83
2022/03/04 13:14:16;;;;;;;24.13;13.10;;;11.50;52.60;;;;;;4998896;28;20038;-84
2022/03/04 13:16:48;;;;;;;24.35;13.15;;;11.40;51.20;;;;;;4993969;28;20041;-82
2022/03/04 13:19:23;;;;;;;24.95;12.98;;;11.50;52.50;;;;;;4998738;28;20173;-86
2022/03/04 13:22:28;;;;;;;23.00;13.73;;;11.60;52.20;;;;;;4998815;28;20033;-85
2022/03/04 13:25:18;;;;;;;23.92;13.55;;;11.70;51.90;;;;;;4996967;28;20101;-87
2022/03/04 13:28:09;;;;;;;26.73;13.93;;;11.70;51.60;;;;;;5016242;28;20026;-86
2022/03/04 13:30:56;;;;;;;23.60;12.38;;;11.70;51.00;;;;;;5014247;28;20046;-86
2022/03/04 13:33:42;;;;;;;25.90;13.55;;;11.70;51.20;;;;;;5007962;28;20054;-86
2022/03/04 13:36:16;;;;;;;24.20;13.60;;;11.80;50.70;;;;;;5021556;28;20033;-84
2022/03/04 13:39:14;;;;;;;25.85;13.43;;;11.50;50.80;;;;;;5004439;28;20038;-84